createdAt,value
2023-06-04T00:00:45.015Z,17.99
2023-06-04T00:01:44.986Z,17.91
2023-06-04T00:02:44.128Z,17.94
2023-06-04T00:03:44.143Z,18.01
2023-06-04T00:04:44.077Z,18.04
2023-06-04T00:05:44.967Z,18.07
2023-06-04T00:06:43.984Z,18.10
2023-06-04T00:07:44.949Z,18.15
2023-06-04T00:08:44.999Z,18.25
2023-06-04T00:09:44.950Z,18.27
2023-06-04T00:10:44.938Z,18.21
2023-06-04T00:11:45.013Z,18.04
2023-06-04T00:12:44.930Z,18.02
2023-06-04T00:13:43.946Z,18.14
2023-06-04T00:14:44.949Z,18.27
2023-06-04T00:15:43.885Z,18.39
2023-06-04T00:16:44.955Z,18.48
2023-06-04T00:17:44.901Z,18.57
2023-06-04T00:18:44.901Z,18.65
2023-06-04T00:19:44.894Z,18.71
2023-06-04T00:20:43.861Z,18.77
2023-06-04T00:21:44.914Z,18.81
2023-06-04T00:22:43.868Z,18.78
2023-06-04T00:23:43.941Z,18.66
2023-06-04T00:24:44.840Z,18.57
2023-06-04T00:25:43.833Z,18.50
2023-06-04T00:26:44.820Z,18.39
2023-06-04T00:27:44.785Z,18.24
2023-06-04T00:28:43.809Z,18.14
2023-06-04T00:29:44.802Z,18.09
2023-06-04T00:30:43.777Z,18.08
2023-06-04T00:31:43.885Z,18.05
2023-06-04T00:32:44.825Z,17.97
2023-06-04T00:33:44.771Z,17.81
2023-06-04T00:34:44.859Z,17.77
2023-06-04T00:35:43.835Z,17.73
2023-06-04T00:36:44.860Z,17.73
2023-06-04T00:37:44.934Z,17.76
2023-06-04T00:38:44.959Z,17.78
2023-06-04T00:39:44.020Z,17.76
2023-06-04T00:40:45.058Z,17.81
2023-06-04T00:41:44.084Z,17.89
2023-06-04T00:42:45.151Z,18.02
2023-06-04T00:43:44.181Z,18.17
2023-06-04T00:44:45.217Z,18.29
2023-06-04T00:45:45.311Z,18.36
2023-06-04T00:46:44.313Z,18.34
2023-06-04T00:47:45.465Z,18.29
2023-06-04T00:48:44.410Z,18.25
2023-06-04T00:49:44.486Z,18.21
2023-06-04T00:50:45.518Z,18.17
2023-06-04T00:51:45.557Z,18.16
2023-06-04T00:52:44.620Z,18.12
2023-06-04T00:53:44.646Z,18.08
2023-06-04T00:54:44.723Z,18.02
2023-06-04T00:55:45.743Z,18.13
2023-06-04T00:56:45.814Z,18.23
2023-06-04T00:57:45.822Z,18.34
2023-06-04T00:58:45.876Z,18.43
2023-06-04T00:59:44.951Z,18.51
2023-06-04T01:00:44.987Z,18.55
2023-06-04T01:01:46.102Z,18.56
2023-06-04T01:02:46.129Z,18.49
2023-06-04T01:03:46.171Z,18.43
2023-06-04T01:04:45.193Z,18.47
2023-06-04T01:05:45.246Z,18.51
2023-06-04T01:06:45.289Z,18.53
2023-06-04T01:07:46.308Z,18.55
2023-06-04T01:08:45.289Z,18.57
2023-06-04T01:09:46.389Z,18.59
2023-06-04T01:10:46.392Z,18.59
2023-06-04T01:11:46.505Z,18.60
2023-06-04T01:12:45.440Z,18.59
2023-06-04T01:13:46.425Z,18.59
2023-06-04T01:14:45.487Z,18.59
2023-06-04T01:15:45.489Z,18.59
2023-06-04T01:16:46.515Z,18.59
2023-06-04T01:17:46.506Z,18.59
2023-06-04T01:18:45.494Z,18.61
2023-06-04T01:19:46.530Z,18.61
2023-06-04T01:20:46.536Z,18.61
2023-06-04T01:21:46.550Z,18.61
2023-06-04T01:22:46.579Z,18.61
2023-06-04T01:23:46.651Z,18.64
2023-06-04T01:24:45.662Z,18.63
2023-06-04T01:25:45.674Z,18.62
2023-06-04T01:26:46.717Z,18.61
2023-06-04T01:27:45.712Z,18.61
2023-06-04T01:28:46.782Z,18.58
2023-06-04T01:29:46.821Z,18.58
2023-06-04T01:30:45.857Z,18.57
2023-06-04T01:31:46.907Z,18.56
2023-06-04T01:32:46.029Z,18.55
2023-06-04T01:33:46.949Z,18.56
2023-06-04T01:34:46.980Z,18.57
2023-06-04T01:35:47.049Z,18.56
2023-06-04T01:36:47.058Z,18.54
2023-06-04T01:37:47.106Z,18.53
2023-06-04T01:38:47.127Z,18.52
2023-06-04T01:39:47.182Z,18.49
2023-06-04T01:40:46.190Z,18.50
2023-06-04T01:41:46.271Z,18.49
2023-06-04T01:42:46.301Z,18.48
2023-06-04T01:43:46.352Z,18.46
2023-06-04T01:44:47.369Z,18.46
2023-06-04T01:45:47.420Z,18.46
2023-06-04T01:46:47.463Z,18.45
2023-06-04T01:47:47.548Z,18.44
2023-06-04T01:48:47.499Z,18.34
2023-06-04T01:49:46.531Z,18.24
2023-06-04T01:50:47.519Z,18.20
2023-06-04T01:51:46.543Z,18.09
2023-06-04T01:52:47.608Z,18.05
2023-06-04T01:53:47.646Z,18.08
2023-06-04T01:54:47.737Z,18.07
2023-06-04T01:55:47.798Z,18.09
2023-06-04T01:56:47.832Z,18.14
2023-06-04T01:57:46.848Z,18.19
2023-06-04T01:58:46.902Z,18.21
2023-06-04T01:59:47.888Z,18.13
2023-06-04T02:00:47.921Z,18.05
2023-06-04T02:01:46.991Z,17.87
2023-06-04T02:02:47.963Z,17.57
2023-06-04T02:03:47.911Z,17.32
2023-06-04T02:04:47.923Z,17.08
2023-06-04T02:05:47.965Z,16.91
2023-06-04T02:06:48.001Z,16.89
2023-06-04T02:07:47.036Z,16.87
2023-06-04T02:08:48.043Z,16.85
2023-06-04T02:09:48.102Z,16.90
2023-06-04T02:10:48.155Z,16.89
2023-06-04T02:11:48.161Z,16.90
2023-06-04T02:12:47.190Z,16.94
2023-06-04T02:13:48.189Z,17.02
2023-06-04T02:14:47.205Z,17.03
2023-06-04T02:15:48.207Z,16.92
2023-06-04T02:16:47.347Z,16.86
2023-06-04T02:17:47.281Z,16.79
2023-06-04T02:18:47.287Z,16.72
2023-06-04T02:19:48.363Z,16.68
2023-06-04T02:20:48.355Z,16.71
2023-06-04T02:21:47.394Z,16.74
2023-06-04T02:22:47.436Z,16.80
2023-06-04T02:23:48.629Z,16.81
2023-06-04T02:24:48.531Z,16.85
2023-06-04T02:25:48.625Z,16.86
2023-06-04T02:26:48.588Z,16.80
2023-06-04T02:27:47.579Z,16.74
2023-06-04T02:28:47.615Z,16.68
2023-06-04T02:29:48.635Z,16.67
2023-06-04T02:30:48.681Z,16.64
2023-06-04T02:31:47.732Z,16.66
2023-06-04T02:32:50.258Z,16.60
2023-06-04T02:33:49.524Z,16.54
2023-06-04T02:34:48.730Z,16.49
2023-06-04T02:35:47.717Z,16.55
2023-06-04T02:36:48.698Z,16.62
2023-06-04T02:37:47.722Z,16.72
2023-06-04T02:38:48.717Z,16.80
2023-06-04T02:39:48.704Z,16.86
2023-06-04T02:40:47.690Z,16.94
2023-06-04T02:41:47.676Z,16.99
2023-06-04T02:42:47.701Z,17.10
2023-06-04T02:43:48.668Z,17.23
2023-06-04T02:44:48.659Z,17.35
2023-06-04T02:45:48.664Z,17.43
2023-06-04T02:46:48.639Z,17.50
2023-06-04T02:47:48.771Z,17.56
2023-06-04T02:48:48.642Z,17.58
2023-06-04T02:49:49.510Z,17.48
2023-06-04T02:50:48.636Z,17.31
2023-06-04T02:51:48.650Z,17.02
2023-06-04T02:52:48.715Z,16.72
2023-06-04T02:53:48.755Z,16.57
2023-06-04T02:54:48.823Z,16.52
2023-06-04T02:55:48.884Z,16.58
2023-06-04T02:56:47.930Z,16.68
2023-06-04T02:57:48.994Z,16.67
2023-06-04T02:58:49.025Z,16.62
2023-06-04T02:59:48.105Z,16.51
2023-06-04T03:00:48.141Z,16.43
2023-06-04T03:01:49.239Z,16.42
2023-06-04T03:02:49.362Z,16.43
2023-06-04T03:03:49.369Z,16.36
2023-06-04T03:04:49.328Z,16.26
2023-06-04T03:05:49.350Z,16.21
2023-06-04T03:06:49.371Z,16.17
2023-06-04T03:07:49.427Z,16.17
2023-06-04T03:08:49.397Z,16.20
2023-06-04T03:09:48.487Z,16.21
2023-06-04T03:10:50.011Z,16.20
2023-06-04T03:11:48.495Z,16.24
2023-06-04T03:12:48.512Z,16.42
2023-06-04T03:13:49.511Z,16.57
2023-06-04T03:14:49.592Z,16.72
2023-06-04T03:15:48.625Z,16.84
2023-06-04T03:16:48.630Z,16.96
2023-06-04T03:17:48.703Z,17.05
2023-06-04T03:18:49.659Z,17.14
2023-06-04T03:19:49.716Z,17.21
2023-06-04T03:20:48.741Z,17.27
2023-06-04T03:21:48.754Z,17.29
2023-06-04T03:22:49.784Z,17.34
2023-06-04T03:23:48.830Z,17.38
2023-06-04T03:24:49.850Z,17.37
2023-06-04T03:25:49.894Z,17.34
2023-06-04T03:26:49.942Z,17.30
2023-06-04T03:27:49.982Z,17.19
2023-06-04T03:28:50.026Z,17.06
2023-06-04T03:29:49.061Z,17.00
2023-06-04T03:30:50.132Z,17.01
2023-06-04T03:31:50.128Z,16.94
2023-06-04T03:32:50.216Z,16.89
2023-06-04T03:33:50.235Z,16.94
2023-06-04T03:34:49.262Z,17.03
2023-06-04T03:35:50.323Z,17.12
2023-06-04T03:36:49.378Z,17.12
2023-06-04T03:37:50.449Z,17.00
2023-06-04T03:38:50.491Z,17.04
2023-06-04T03:39:49.568Z,17.10
2023-06-04T03:40:50.621Z,17.16
2023-06-04T03:41:50.658Z,17.21
2023-06-04T03:42:49.701Z,17.22
2023-06-04T03:43:50.738Z,17.19
2023-06-04T03:44:49.790Z,17.26
2023-06-04T03:45:50.859Z,17.24
2023-06-04T03:46:50.027Z,17.28
2023-06-04T03:47:50.981Z,17.30
2023-06-04T03:48:50.967Z,17.32
2023-06-04T03:49:51.017Z,17.35
2023-06-04T03:50:51.075Z,17.35
2023-06-04T03:51:50.120Z,17.38
2023-06-04T03:52:50.152Z,17.43
2023-06-04T03:53:51.206Z,17.47
2023-06-04T03:54:51.247Z,17.51
2023-06-04T03:55:50.301Z,17.54
2023-06-04T03:56:51.332Z,17.56
2023-06-04T03:57:50.341Z,17.60
2023-06-04T03:58:51.386Z,17.64
2023-06-04T03:59:50.465Z,17.66
2023-06-04T04:00:50.518Z,17.67
2023-06-04T04:01:50.633Z,17.66
2023-06-04T04:02:51.636Z,17.67
2023-06-04T04:03:50.747Z,17.51
2023-06-04T04:04:51.648Z,17.23
2023-06-04T04:05:51.674Z,17.11
2023-06-04T04:06:51.704Z,16.98
2023-06-04T04:07:51.757Z,16.93
2023-06-04T04:08:51.813Z,17.02
2023-06-04T04:09:51.849Z,17.11
2023-06-04T04:10:50.905Z,17.09
2023-06-04T04:11:50.942Z,17.18
2023-06-04T04:12:53.583Z,17.28
2023-06-04T04:13:51.172Z,17.35
2023-06-04T04:14:51.201Z,17.43
2023-06-04T04:15:52.219Z,17.48
2023-06-04T04:16:52.282Z,17.52
2023-06-04T04:17:51.343Z,17.55
2023-06-04T04:18:51.292Z,17.58
2023-06-04T04:19:52.342Z,17.62
2023-06-04T04:20:51.331Z,17.65
2023-06-04T04:21:51.317Z,17.68
2023-06-04T04:22:51.792Z,17.69
2023-06-04T04:23:52.430Z,17.72
2023-06-04T04:24:51.417Z,17.74
2023-06-04T04:25:52.477Z,17.76
2023-06-04T04:26:52.507Z,17.79
2023-06-04T04:27:51.609Z,17.82
2023-06-04T04:28:51.597Z,17.84
2023-06-04T04:29:52.637Z,17.85
2023-06-04T04:30:52.711Z,17.86
2023-06-04T04:31:52.677Z,17.90
2023-06-04T04:32:52.777Z,17.92
2023-06-04T04:33:52.753Z,17.92
2023-06-04T04:34:52.814Z,17.94
2023-06-04T04:35:52.052Z,17.96
2023-06-04T04:36:51.837Z,17.97
2023-06-04T04:37:52.870Z,17.97
2023-06-04T04:38:52.941Z,17.99
2023-06-04T04:39:51.956Z,17.98
2023-06-04T04:40:51.960Z,17.99
2023-06-04T04:41:51.972Z,17.99
2023-06-04T04:42:52.988Z,17.99
2023-06-04T04:43:51.985Z,17.95
2023-06-04T04:44:53.092Z,17.93
2023-06-04T04:45:52.094Z,17.94
2023-06-04T04:46:53.225Z,17.95
2023-06-04T04:47:52.260Z,17.97
2023-06-04T04:48:52.238Z,17.99
2023-06-04T04:49:53.277Z,17.98
2023-06-04T04:50:53.300Z,17.98
2023-06-04T04:51:53.331Z,17.94
2023-06-04T04:52:53.377Z,17.91
2023-06-04T04:53:53.366Z,17.92
2023-06-04T04:54:53.372Z,17.93
2023-06-04T04:55:53.409Z,17.86
2023-06-04T04:57:05.017Z,17.89
2023-06-04T04:57:53.393Z,17.86
2023-06-04T04:58:53.414Z,17.87
2023-06-04T04:59:52.371Z,17.83
2023-06-04T05:00:54.064Z,17.79
2023-06-04T05:01:52.433Z,17.81
2023-06-04T05:02:53.391Z,17.79
2023-06-04T05:03:53.415Z,17.56
2023-06-04T05:04:53.338Z,17.48
2023-06-04T05:05:52.334Z,17.52
2023-06-04T05:06:52.341Z,17.61
2023-06-04T05:07:52.329Z,17.68
2023-06-04T05:08:53.311Z,17.75
2023-06-04T05:09:52.289Z,17.81
2023-06-04T05:10:53.384Z,17.86
2023-06-04T05:11:53.411Z,17.83
2023-06-04T05:12:52.421Z,17.76
2023-06-04T05:13:52.432Z,17.78
2023-06-04T05:14:52.455Z,17.84
2023-06-04T05:15:53.497Z,17.90
2023-06-04T05:16:53.606Z,17.94
2023-06-04T05:17:53.522Z,17.99
2023-06-04T05:18:53.532Z,18.02
2023-06-04T05:19:53.542Z,18.06
2023-06-04T05:20:52.607Z,18.10
2023-06-04T05:21:54.575Z,18.12
2023-06-04T05:22:53.645Z,18.13
2023-06-04T05:23:52.736Z,17.86
2023-06-04T05:24:53.715Z,17.73
2023-06-04T05:25:52.789Z,17.44
2023-06-04T05:26:53.822Z,17.30
2023-06-04T05:27:52.878Z,17.25
2023-06-04T05:28:54.411Z,17.15
2023-06-04T05:29:53.942Z,17.02
2023-06-04T05:30:53.975Z,17.06
2023-06-04T05:31:54.036Z,17.06
2023-06-04T05:32:54.084Z,17.16
2023-06-04T05:33:54.067Z,17.24
2023-06-04T05:34:54.107Z,17.19
2023-06-04T05:35:53.157Z,17.11
2023-06-04T05:36:53.168Z,17.03
2023-06-04T05:37:54.190Z,17.04
2023-06-04T05:38:54.216Z,17.08
2023-06-04T05:39:53.200Z,17.13
2023-06-04T05:40:54.243Z,17.11
2023-06-04T05:41:54.211Z,17.11
2023-06-04T05:42:53.216Z,17.09
2023-06-04T05:43:53.222Z,17.13
2023-06-04T05:44:53.231Z,17.16
2023-06-04T05:45:54.262Z,17.25
2023-06-04T05:46:54.241Z,17.27
2023-06-04T05:47:53.293Z,17.20
2023-06-04T05:48:54.267Z,17.26
2023-06-04T05:49:54.296Z,17.26
2023-06-04T05:50:54.285Z,17.18
2023-06-04T05:51:54.299Z,17.16
2023-06-04T05:52:54.285Z,17.28
2023-06-04T05:53:54.297Z,17.39
2023-06-04T05:54:54.326Z,17.24
2023-06-04T05:55:53.341Z,17.25
2023-06-04T05:56:54.381Z,17.30
2023-06-04T05:57:54.380Z,17.34
2023-06-04T05:58:53.409Z,17.30
2023-06-04T05:59:54.443Z,17.30
2023-06-04T06:00:53.453Z,17.20
2023-06-04T06:01:54.561Z,17.24
2023-06-04T06:02:54.613Z,17.14
2023-06-04T06:03:53.731Z,17.24
2023-06-04T06:04:54.599Z,17.27
2023-06-04T06:05:53.645Z,17.33
2023-06-04T06:06:53.637Z,17.44
2023-06-04T06:07:53.742Z,17.47
2023-06-04T06:08:54.715Z,17.49
2023-06-04T06:09:54.742Z,17.45
2023-06-04T06:10:54.740Z,17.49
2023-06-04T06:11:54.766Z,17.62
2023-06-04T06:12:53.826Z,17.76
2023-06-04T06:13:54.842Z,17.79
2023-06-04T06:14:54.881Z,17.55
2023-06-04T06:15:54.953Z,17.58
2023-06-04T06:16:55.040Z,17.51
2023-06-04T06:17:54.932Z,17.57
2023-06-04T06:18:54.960Z,17.52
2023-06-04T06:19:53.978Z,17.46
2023-06-04T06:20:54.005Z,17.54
2023-06-04T06:21:55.029Z,17.71
2023-06-04T06:22:55.080Z,17.89
2023-06-04T06:23:55.246Z,18.04
2023-06-04T06:24:55.155Z,18.15
2023-06-04T06:25:55.183Z,18.25
2023-06-04T06:26:55.232Z,18.35
2023-06-04T06:27:54.249Z,18.39
2023-06-04T06:28:54.300Z,18.46
2023-06-04T06:29:55.370Z,18.51
2023-06-04T06:30:55.440Z,18.56
2023-06-04T06:31:55.432Z,18.47
2023-06-04T06:32:56.341Z,18.48
2023-06-04T06:33:54.496Z,18.30
2023-06-04T06:34:54.511Z,18.32
2023-06-04T06:35:55.560Z,18.27
2023-06-04T06:36:54.592Z,18.33
2023-06-04T08:56:56.628Z,22.25
2023-06-04T09:05:56.599Z,22.27
2023-06-04T09:06:55.569Z,22.33
2023-06-04T09:07:55.584Z,22.43
2023-06-04T09:08:58.303Z,22.51
2023-06-04T09:10:11.434Z,22.59
2023-06-04T09:10:56.537Z,22.61
2023-06-04T09:11:56.555Z,22.47
2023-06-04T09:12:56.533Z,22.45
2023-06-04T09:13:56.534Z,22.52
2023-06-04T09:14:56.542Z,22.65
2023-06-04T09:15:55.564Z,22.75
2023-06-04T09:16:56.583Z,22.84
2023-06-04T09:17:56.541Z,22.90
2023-06-04T09:18:55.493Z,22.93
2023-06-04T09:19:56.484Z,22.93
2023-06-04T09:20:55.494Z,22.93
2023-06-04T09:21:56.474Z,22.91
2023-06-04T09:22:55.468Z,22.99
2023-06-04T09:23:56.553Z,23.04
2023-06-04T09:24:55.489Z,23.02
2023-06-04T09:25:55.455Z,23.04
2023-06-04T09:26:55.432Z,23.12
2023-06-04T09:27:56.438Z,23.06
2023-06-04T09:28:55.418Z,23.15
2023-06-04T09:29:55.414Z,23.15
2023-06-04T09:30:56.467Z,23.06
2023-06-04T09:31:56.468Z,23.15
2023-06-04T09:32:56.466Z,23.21
2023-06-04T09:33:56.395Z,23.26
2023-06-04T09:34:55.403Z,23.28
2023-06-04T09:35:56.399Z,23.22
2023-06-04T09:36:56.399Z,23.14
2023-06-04T09:37:55.418Z,23.00
2023-06-04T09:38:56.399Z,23.04
2023-06-04T09:39:55.396Z,23.04
2023-06-04T09:40:55.381Z,23.11
2023-06-04T09:41:56.369Z,23.23
2023-06-04T09:42:56.708Z,23.32
2023-06-04T09:43:55.329Z,23.44
2023-06-04T09:44:56.346Z,23.47
2023-06-04T09:45:56.350Z,23.47
2023-06-04T09:46:55.471Z,23.56
2023-06-04T09:47:56.416Z,23.61
2023-06-04T09:48:56.358Z,23.66
2023-06-04T09:49:56.400Z,23.68
2023-06-04T09:50:55.425Z,23.61
2023-06-04T09:51:56.448Z,23.25
2023-06-04T09:52:56.461Z,22.96
2023-06-04T09:53:56.482Z,23.02
2023-06-04T09:54:56.521Z,23.11
2023-06-04T09:55:56.534Z,23.17
2023-06-04T09:56:56.514Z,23.17
2023-06-04T09:57:55.550Z,23.14
2023-06-04T09:58:55.588Z,23.05
2023-06-04T09:59:55.600Z,22.97
2023-06-04T10:00:56.662Z,23.01
2023-06-04T10:01:56.688Z,23.08
2023-06-04T10:02:56.810Z,23.04
2023-06-04T10:03:56.881Z,22.94
2023-06-04T10:04:56.797Z,22.95
2023-06-04T10:05:56.803Z,22.97
2023-06-04T10:06:55.852Z,22.96
2023-06-04T10:07:55.890Z,22.91
2023-06-04T10:08:55.883Z,23.01
2023-06-04T10:09:56.918Z,23.19
2023-06-04T10:10:56.968Z,23.33
2023-06-04T10:11:55.995Z,23.32
2023-06-04T10:12:56.992Z,23.42
2023-06-04T10:13:56.041Z,23.49
2023-06-04T10:14:57.061Z,23.51
2023-06-04T10:15:57.134Z,23.63
2023-06-04T10:16:56.255Z,23.78
2023-06-04T10:17:57.221Z,23.88
2023-06-04T10:18:56.226Z,24.00
2023-06-04T10:19:57.261Z,24.11
2023-06-04T10:20:57.413Z,24.05
2023-06-04T10:21:57.296Z,24.05
2023-06-04T10:22:57.343Z,24.17
2023-06-04T10:23:57.386Z,24.25
2023-06-04T10:24:56.408Z,24.32
2023-06-04T10:25:56.440Z,24.41
2023-06-04T10:26:57.489Z,24.44
2023-06-04T10:27:57.506Z,24.53
2023-06-04T10:28:57.532Z,24.58
2023-06-04T10:29:56.586Z,24.59
2023-06-04T10:30:56.556Z,24.67
2023-06-04T10:31:56.727Z,24.77
2023-06-04T10:32:57.678Z,24.83
2023-06-04T10:33:56.652Z,24.89
2023-06-04T10:34:57.702Z,24.87
2023-06-04T10:35:56.759Z,24.74
2023-06-04T10:36:57.787Z,24.61
2023-06-04T10:37:56.814Z,24.68
2023-06-04T10:38:57.791Z,24.76
2023-06-04T10:39:57.865Z,24.90
2023-06-04T10:40:57.849Z,24.94
2023-06-04T10:41:57.884Z,24.93
2023-06-04T10:42:57.909Z,24.86
2023-06-04T10:43:57.985Z,24.92
2023-06-04T10:44:58.217Z,24.93
2023-06-04T10:45:58.086Z,25.00
2023-06-04T10:46:58.020Z,25.06
2023-06-04T10:47:58.058Z,25.07
2023-06-04T10:48:58.089Z,25.10
2023-06-04T10:49:57.121Z,25.14
2023-06-04T10:50:57.168Z,25.19
2023-06-04T10:51:58.186Z,25.26
2023-06-04T10:52:58.249Z,25.29
2023-06-04T10:53:58.270Z,25.32
2023-06-04T10:54:58.284Z,25.36
2023-06-04T10:55:57.331Z,25.34
2023-06-04T10:56:58.388Z,25.34
2023-06-04T10:57:58.378Z,25.42
2023-06-04T10:58:58.431Z,25.53
2023-06-04T10:59:58.548Z,25.62
2023-06-04T11:00:58.503Z,25.69
2023-06-04T11:01:58.627Z,25.74
2023-06-04T11:02:58.575Z,25.69
2023-06-04T11:03:57.601Z,25.66
2023-06-04T11:04:57.592Z,25.73
2023-06-04T11:05:57.617Z,25.74
2023-06-04T11:06:57.629Z,25.79
2023-06-04T11:07:58.645Z,25.83
2023-06-04T11:08:58.691Z,25.85
2023-06-04T11:09:57.719Z,25.83
2023-06-04T11:10:58.760Z,25.82
2023-06-04T11:11:58.789Z,25.86
2023-06-04T11:12:58.824Z,25.76
2023-06-04T11:13:58.836Z,25.74
2023-06-04T11:14:57.871Z,25.69
2023-06-04T11:15:58.915Z,25.83
2023-06-04T11:16:58.918Z,26.00
2023-06-04T11:17:58.963Z,26.11
2023-06-04T11:18:58.969Z,26.17
2023-06-04T11:19:59.008Z,26.26
2023-06-04T11:20:59.024Z,26.32
2023-06-04T11:21:59.053Z,26.27
2023-06-04T11:22:58.069Z,26.28
2023-06-04T11:23:59.095Z,26.21
2023-06-04T11:24:59.094Z,26.04
2023-06-04T11:25:58.149Z,26.02
2023-06-04T11:27:58.169Z,25.96
2023-06-04T11:28:58.192Z,26.11
2023-06-04T11:29:59.229Z,26.28
2023-06-04T11:30:59.307Z,26.38
2023-06-04T11:31:59.345Z,26.47
2023-06-04T11:32:59.346Z,26.59
2023-06-04T11:33:59.351Z,26.72
2023-06-04T11:34:58.375Z,26.70
2023-06-04T11:35:58.451Z,26.68
2023-06-04T11:36:59.475Z,26.65
2023-06-04T11:37:59.508Z,26.76
2023-06-04T11:38:59.532Z,26.71
2023-06-04T11:39:59.605Z,26.76
2023-06-04T11:40:58.576Z,26.79
2023-06-04T11:41:58.608Z,26.85
2023-06-04T11:42:58.662Z,26.82
2023-06-04T11:43:59.659Z,26.76
2023-06-04T11:44:58.698Z,26.76
2023-06-04T11:45:59.734Z,26.77
2023-06-04T11:46:59.753Z,26.72
2023-06-04T11:47:59.880Z,26.75
2023-06-04T11:48:59.973Z,26.81
2023-06-04T11:49:59.890Z,26.83
2023-06-04T11:50:59.872Z,26.87
2023-06-04T11:51:59.906Z,26.89
2023-06-04T11:52:58.958Z,26.83
2023-06-04T11:53:59.940Z,26.77
2023-06-04T11:54:59.978Z,26.75
2023-06-04T11:55:58.999Z,26.76
2023-06-04T11:57:00.029Z,26.83
2023-06-04T11:58:00.040Z,26.81
2023-06-04T11:59:00.142Z,26.86
2023-06-04T12:00:00.187Z,26.89
2023-06-04T12:01:00.169Z,26.95
2023-06-04T12:01:59.189Z,26.92
2023-06-04T12:03:00.339Z,27.01
2023-06-04T12:04:00.248Z,27.06
2023-06-04T12:05:00.293Z,27.10
2023-06-04T12:06:00.432Z,27.08
2023-06-04T12:07:00.362Z,27.15
2023-06-04T12:08:00.409Z,27.11
2023-06-04T12:09:00.455Z,27.06
2023-06-04T12:09:59.411Z,27.14
2023-06-04T12:10:59.427Z,27.18
2023-06-04T12:12:00.462Z,27.02
2023-06-04T12:13:00.510Z,27.03
2023-06-04T12:14:00.513Z,27.10
2023-06-04T12:15:00.632Z,27.14
2023-06-04T12:16:00.564Z,27.18
2023-06-04T12:16:59.661Z,27.01
2023-06-04T12:17:59.714Z,26.98
2023-06-04T12:19:00.629Z,26.96
2023-06-04T12:20:00.688Z,26.88
2023-06-04T12:21:00.738Z,26.86
2023-06-04T12:21:59.722Z,26.82
2023-06-04T12:23:00.739Z,26.77
2023-06-04T12:24:00.860Z,26.77
2023-06-04T12:25:00.839Z,26.71
2023-06-04T12:26:00.954Z,26.74
2023-06-04T12:27:00.897Z,26.81
2023-06-04T12:27:59.934Z,26.87
2023-06-04T12:29:00.975Z,26.93
2023-06-04T12:29:59.982Z,26.91
2023-06-04T12:31:00.049Z,26.83
2023-06-04T12:32:01.009Z,26.77
2023-06-04T12:33:01.133Z,26.83
2023-06-04T12:34:00.123Z,26.92
2023-06-04T12:35:01.127Z,27.00
2023-06-04T12:36:01.138Z,27.00
2023-06-04T12:37:01.169Z,27.03
2023-06-04T12:38:00.220Z,26.85
2023-06-04T12:39:01.283Z,26.87
2023-06-04T12:40:00.289Z,26.87
2023-06-04T12:41:01.303Z,26.94
2023-06-04T12:42:00.322Z,27.00
2023-06-04T12:43:00.329Z,27.01
2023-06-04T12:44:01.373Z,26.82
2023-06-04T12:45:01.382Z,26.83
2023-06-04T12:46:01.416Z,26.88
2023-06-04T12:47:00.901Z,26.92
2023-06-04T12:48:00.590Z,26.97
2023-06-04T12:49:00.537Z,26.90
2023-06-04T12:50:01.594Z,26.86
2023-06-04T12:51:00.634Z,26.89
2023-06-04T12:52:01.652Z,26.79
2023-06-04T12:53:01.652Z,26.83
2023-06-04T12:54:01.680Z,26.89
2023-06-04T12:55:01.705Z,26.85
2023-06-04T12:56:01.708Z,26.71
2023-06-04T12:57:01.743Z,26.52
2023-06-04T12:58:01.764Z,26.52
2023-06-04T12:59:01.797Z,26.46
2023-06-04T13:00:00.837Z,26.50
2023-06-04T13:01:01.851Z,26.57
2023-06-04T13:02:00.880Z,26.66
2023-06-04T13:03:00.973Z,26.80
2023-06-04T13:04:01.024Z,26.91
2023-06-04T13:05:00.932Z,26.97
2023-06-04T13:06:01.964Z,27.02
2023-06-04T13:07:01.981Z,26.92
2023-06-04T13:08:01.029Z,26.97
2023-06-04T13:09:02.062Z,27.11
2023-06-04T13:10:02.151Z,27.12
2023-06-04T13:11:02.091Z,27.12
2023-06-04T13:12:02.128Z,27.05
2023-06-04T13:13:02.161Z,26.93
2023-06-04T13:14:02.194Z,26.89
2023-06-04T13:15:02.252Z,26.98
2023-06-04T13:16:01.311Z,27.15
2023-06-04T13:17:07.335Z,27.23
2023-06-04T13:18:02.369Z,27.10
2023-06-04T13:19:02.279Z,27.15
2023-06-04T13:20:02.312Z,26.96
2023-06-04T13:21:02.263Z,26.84
2023-06-04T13:22:01.262Z,26.87
2023-06-04T13:23:02.800Z,26.89
2023-06-04T13:24:02.262Z,26.86
2023-06-04T13:25:02.291Z,26.90
2023-06-04T13:26:02.222Z,26.94
2023-06-04T13:27:01.237Z,26.98
2023-06-04T13:28:02.234Z,26.95
2023-06-04T13:29:02.198Z,27.03
2023-06-04T13:30:01.239Z,27.02
2023-06-04T13:31:02.211Z,26.95
2023-06-04T13:32:02.250Z,26.89
2023-06-04T13:33:02.226Z,26.87
2023-06-04T13:34:06.471Z,26.84
2023-06-04T13:35:02.216Z,26.86
2023-06-04T13:36:02.201Z,26.81
2023-06-04T13:37:01.205Z,26.77
2023-06-04T13:38:02.199Z,26.77
2023-06-04T13:39:02.550Z,26.71
2023-06-04T13:40:02.172Z,26.75
2023-06-04T13:41:02.158Z,26.83
2023-06-04T13:42:02.178Z,26.89
2023-06-04T13:43:01.151Z,26.83
2023-06-04T13:44:01.138Z,26.78
2023-06-04T13:45:01.128Z,26.95
2023-06-04T13:46:01.201Z,26.99
2023-06-04T13:47:01.108Z,26.95
2023-06-04T13:48:01.112Z,27.03
2023-06-04T13:49:02.125Z,27.01
2023-06-04T13:50:02.141Z,27.11
2023-06-04T13:51:02.153Z,27.22
2023-06-04T13:52:02.203Z,27.24
2023-06-04T13:53:02.260Z,27.28
2023-06-04T13:54:01.269Z,27.28
2023-06-04T13:55:01.310Z,27.30
2023-06-04T13:56:02.331Z,27.25
2023-06-04T13:57:01.379Z,27.19
2023-06-04T13:58:02.397Z,27.15
2023-06-04T13:59:01.502Z,26.97
2023-06-04T14:00:02.519Z,27.01
2023-06-04T14:01:02.567Z,27.05
2023-06-04T14:02:02.614Z,27.10
2023-06-04T14:03:02.694Z,27.09
2023-06-04T14:04:01.758Z,27.16
2023-06-04T14:05:02.592Z,27.19
2023-06-04T14:06:01.654Z,27.16
2023-06-04T14:07:02.699Z,27.10
2023-06-04T14:08:02.729Z,27.15
2023-06-04T14:09:04.279Z,27.14
2023-06-04T14:10:02.880Z,27.05
2023-06-04T14:11:02.907Z,26.91
2023-06-04T14:12:01.958Z,26.86
2023-06-04T14:13:02.970Z,26.86
2023-06-04T14:14:01.957Z,26.89
2023-06-04T14:15:03.022Z,26.87
2023-06-04T14:16:03.090Z,26.80
2023-06-04T14:17:03.072Z,26.79
2023-06-04T14:18:02.120Z,26.71
2023-06-04T14:19:02.113Z,26.70
2023-06-04T14:20:03.156Z,26.73
2023-06-04T14:21:03.205Z,26.71
2023-06-04T14:22:02.191Z,26.66
2023-06-04T14:23:02.214Z,26.65
2023-06-04T14:24:03.390Z,26.68
2023-06-04T14:25:02.285Z,26.74
2023-06-04T14:26:03.308Z,26.80
2023-06-04T14:27:02.349Z,26.86
2023-06-04T14:28:03.346Z,26.93
2023-06-04T14:29:03.386Z,26.98
2023-06-04T14:30:03.446Z,26.83
2023-06-04T14:31:02.513Z,26.81
2023-06-04T14:32:03.534Z,26.73
2023-06-04T14:33:03.562Z,26.71
2023-06-04T14:34:02.499Z,26.55
2023-06-04T14:35:03.536Z,26.47
2023-06-04T14:36:02.566Z,26.49
2023-06-04T14:37:03.612Z,26.58
2023-06-04T14:38:02.665Z,26.64
2023-06-04T14:39:02.691Z,26.66
2023-06-04T14:40:02.716Z,26.66
2023-06-04T14:41:02.778Z,26.61
2023-06-04T14:42:03.785Z,26.65
2023-06-04T14:43:03.788Z,26.70
2023-06-04T14:44:02.815Z,26.75
2023-06-04T14:45:03.805Z,26.76
2023-06-04T14:46:02.852Z,26.81
2023-06-04T14:47:02.858Z,26.74
2023-06-04T14:48:14.061Z,26.73
2023-06-04T14:49:03.894Z,26.70
2023-06-04T14:50:03.918Z,26.78
2023-06-04T14:51:02.887Z,26.81
2023-06-04T14:52:03.882Z,26.80
2023-06-04T14:53:02.860Z,26.87
2023-06-04T14:54:02.851Z,26.92
2023-06-04T14:55:03.876Z,26.72
2023-06-04T14:56:02.851Z,26.78
2023-06-04T14:57:03.852Z,26.83
2023-06-04T14:58:03.901Z,26.82
2023-06-04T14:59:03.842Z,26.86
2023-06-04T15:00:02.812Z,26.89
2023-06-04T15:01:03.792Z,26.94
2023-06-04T15:02:03.890Z,27.00
2023-06-04T15:03:02.913Z,26.92
2023-06-04T15:04:03.934Z,26.96
2023-06-04T15:05:02.779Z,26.76
2023-06-04T15:06:14.811Z,26.81
2023-06-04T15:07:03.774Z,26.80
2023-06-04T15:08:03.768Z,26.88
2023-06-04T15:09:02.741Z,26.92
2023-06-04T15:10:03.758Z,26.98
2023-06-04T15:11:03.772Z,27.02
2023-06-04T15:12:05.166Z,27.09
2023-06-04T15:13:02.931Z,27.12
2023-06-04T15:14:03.935Z,27.11
2023-06-04T15:15:03.964Z,27.03
2023-06-04T15:16:03.990Z,27.11
2023-06-04T15:17:04.031Z,27.15
2023-06-04T15:18:03.135Z,27.12
2023-06-04T15:19:03.206Z,26.98
2023-06-04T15:20:04.175Z,26.96
2023-06-04T15:21:03.171Z,26.99